createdAt,value
2023-05-01T00:00:23.505Z,9.25
2023-05-01T00:01:00.115Z,9.19
2023-05-01T00:01:33.583Z,9.19
2023-05-01T00:02:06.128Z,9.19
2023-05-01T00:02:38.710Z,9.19
2023-05-01T00:03:14.241Z,9.19
2023-05-01T00:03:47.023Z,9.19
2023-05-01T00:04:21.865Z,9.19
2023-05-01T00:04:55.720Z,9.19
2023-05-01T00:05:28.391Z,9.13
2023-05-01T00:06:04.690Z,9.13
2023-05-01T00:06:38.256Z,9.13
2023-05-01T00:07:10.765Z,9.13
2023-05-01T00:07:43.247Z,9.13
2023-05-01T00:08:16.940Z,9.13
2023-05-01T00:08:49.502Z,9.13
2023-05-01T00:09:21.950Z,9.13
2023-05-01T00:09:55.569Z,9.13
2023-05-01T00:10:28.153Z,9.13
2023-05-01T00:11:03.814Z,9.13
2023-05-01T00:11:37.779Z,9.13
2023-05-01T00:12:11.887Z,9.13
2023-05-01T00:12:44.358Z,9.06
2023-05-01T00:13:21.657Z,9.06
2023-05-01T00:13:54.435Z,9.06
2023-05-01T00:14:26.968Z,9.06
2023-05-01T00:15:00.489Z,9.06
2023-05-01T00:15:33.470Z,9.06
2023-05-01T00:16:09.286Z,9.06
2023-05-01T00:16:42.873Z,9.06
2023-05-01T00:17:15.408Z,9.06
2023-05-01T00:17:49.013Z,9.06
2023-05-01T00:18:21.640Z,9.06
2023-05-01T00:18:55.060Z,9.00
2023-05-01T00:19:28.516Z,9.06
2023-05-01T00:20:01.011Z,9.06
2023-05-01T00:20:33.451Z,9.06
2023-05-01T00:21:08.312Z,9.06
2023-05-01T00:21:40.810Z,9.00
2023-05-01T00:22:13.302Z,9.00
2023-05-01T00:22:46.782Z,9.00
2023-05-01T00:23:19.277Z,9.00
2023-05-01T00:23:51.998Z,9.00
2023-05-01T00:24:25.523Z,9.00
2023-05-01T00:24:57.958Z,9.00
2023-05-01T00:25:33.275Z,8.94
2023-05-01T00:26:05.789Z,8.94
2023-05-01T00:26:38.261Z,8.94
2023-05-01T00:27:11.700Z,8.94
2023-05-01T00:27:44.656Z,8.94
2023-05-01T00:28:18.909Z,8.94
2023-05-01T00:28:52.357Z,8.94
2023-05-01T00:29:24.910Z,8.94
2023-05-01T00:29:57.643Z,8.94
2023-05-01T00:30:31.308Z,8.94
2023-05-01T00:31:03.948Z,8.94
2023-05-01T00:31:36.738Z,8.94
2023-05-01T00:32:10.433Z,8.88
2023-05-01T00:32:43.100Z,8.88
2023-05-01T00:33:18.947Z,8.88
2023-05-01T00:33:52.349Z,8.88
2023-05-01T00:34:25.120Z,8.88
2023-05-01T00:34:57.806Z,8.88
2023-05-01T00:35:31.782Z,8.88
2023-05-01T00:36:06.038Z,8.88
2023-05-01T00:36:38.607Z,8.88
2023-05-01T00:37:12.029Z,8.88
2023-05-01T00:37:44.484Z,8.88
2023-05-01T00:38:17.378Z,8.88
2023-05-01T00:38:50.880Z,8.88
2023-05-01T00:39:23.471Z,8.81
2023-05-01T00:39:56.307Z,8.81
2023-05-01T00:40:30.107Z,8.81
2023-05-01T00:41:02.630Z,8.81
2023-05-01T00:41:35.464Z,8.81
2023-05-01T00:42:08.916Z,8.88
2023-05-01T00:42:41.380Z,8.88
2023-05-01T00:43:14.236Z,8.88
2023-05-01T00:43:47.867Z,8.88
2023-05-01T00:44:20.385Z,8.81
2023-05-01T00:44:52.829Z,8.81
2023-05-01T00:45:27.122Z,8.81
2023-05-01T00:45:59.639Z,8.81
2023-05-01T00:46:33.555Z,8.81
2023-05-01T00:47:07.096Z,8.81
2023-05-01T00:47:39.645Z,8.75
2023-05-01T00:48:15.038Z,8.75
2023-05-01T00:48:48.556Z,8.75
2023-05-01T00:49:21.343Z,8.75
2023-05-01T00:49:54.539Z,8.75
2023-05-01T00:50:28.102Z,8.75
2023-05-01T00:51:02.057Z,8.75
2023-05-01T00:51:36.912Z,8.75
2023-05-01T00:52:10.829Z,8.75
2023-05-01T00:52:43.498Z,8.75
2023-05-01T00:53:16.603Z,8.75
2023-05-01T00:53:50.422Z,8.75
2023-05-01T00:54:25.193Z,8.75
2023-05-01T00:54:58.977Z,8.69
2023-05-01T00:55:33.616Z,8.69
2023-05-01T00:56:07.445Z,8.69
2023-05-01T00:56:40.997Z,8.69
2023-05-01T00:57:13.521Z,8.69
2023-05-01T00:57:46.976Z,8.69
2023-05-01T00:58:20.423Z,8.69
2023-05-01T00:58:53.434Z,8.69
2023-05-01T00:59:26.030Z,8.69
2023-05-01T00:59:59.572Z,8.69
2023-05-01T01:00:32.205Z,8.69
2023-05-01T01:01:05.301Z,8.69
2023-05-01T01:01:39.139Z,8.69
2023-05-01T01:02:12.532Z,8.69
2023-05-01T01:02:45.189Z,8.69
2023-05-01T01:03:28.017Z,8.69
2023-05-01T01:04:00.629Z,8.69
2023-05-01T01:04:34.344Z,8.69
2023-05-01T01:05:07.308Z,8.69
2023-05-01T01:05:45.874Z,8.69
2023-05-01T01:06:27.910Z,8.69
2023-05-01T01:07:09.180Z,8.69
2023-05-01T01:07:50.432Z,8.63
2023-05-01T01:08:31.920Z,8.63
2023-05-01T01:09:20.661Z,8.63
2023-05-01T01:10:03.328Z,8.63
2023-05-01T01:10:43.853Z,8.63
2023-05-01T01:11:23.883Z,8.63
2023-05-01T01:12:07.463Z,8.63
2023-05-01T01:12:50.012Z,8.63
2023-05-01T01:13:28.494Z,8.63
2023-05-01T01:14:09.520Z,8.63
2023-05-01T01:14:49.153Z,8.63
2023-05-01T01:15:29.114Z,8.63
2023-05-01T01:16:10.136Z,8.63
2023-05-01T01:16:49.697Z,8.63
2023-05-01T01:17:29.619Z,8.56
2023-05-01T01:18:11.081Z,8.56
2023-05-01T01:18:50.536Z,8.56
2023-05-01T01:19:45.074Z,8.56
2023-05-01T01:20:32.374Z,8.56
2023-05-01T01:21:11.652Z,8.56
2023-05-01T01:21:47.319Z,8.56
2023-05-01T01:22:24.508Z,8.56
2023-05-01T01:23:28.026Z,8.56
2023-05-01T01:24:27.823Z,8.56
2023-05-01T01:25:40.635Z,8.56
2023-05-01T01:26:25.067Z,8.56
2023-05-01T01:27:34.623Z,8.56
2023-05-01T01:28:22.787Z,8.56
2023-05-01T01:29:42.882Z,8.56
2023-05-01T01:30:36.309Z,8.50
2023-05-01T01:31:17.988Z,8.50
2023-05-01T01:32:05.593Z,8.50
2023-05-01T01:33:19.093Z,8.50
2023-05-01T01:34:04.996Z,8.50
2023-05-01T01:34:44.225Z,8.50
2023-05-01T01:35:19.862Z,8.50
2023-05-01T01:35:58.302Z,8.50
2023-05-01T01:36:40.154Z,8.50
2023-05-01T01:37:20.697Z,8.50
2023-05-01T01:38:02.234Z,8.50
2023-05-01T01:38:41.509Z,8.50
2023-05-01T01:39:21.823Z,8.50
2023-05-01T01:40:01.720Z,8.50
2023-05-01T01:40:39.808Z,8.50
2023-05-01T01:41:17.875Z,8.44
2023-05-01T01:41:53.420Z,8.44
2023-05-01T01:42:30.892Z,8.44
2023-05-01T01:43:07.627Z,8.44
2023-05-01T01:43:44.751Z,8.44
2023-05-01T01:44:21.493Z,8.44
2023-05-01T01:44:56.262Z,8.44
2023-05-01T01:45:34.442Z,8.44
2023-05-01T01:46:11.748Z,8.44
2023-05-01T01:46:44.386Z,8.44
2023-05-01T01:47:18.447Z,8.44
2023-05-01T01:47:54.132Z,8.44
2023-05-01T01:48:31.452Z,8.44
2023-05-01T01:49:06.981Z,8.44
2023-05-01T01:49:44.441Z,8.44
2023-05-01T01:50:18.721Z,8.44
2023-05-01T01:50:52.518Z,8.44
2023-05-01T01:51:26.965Z,8.38
2023-05-01T01:52:01.898Z,8.38
2023-05-01T01:52:43.524Z,8.38
2023-05-01T01:53:19.653Z,8.38
2023-05-01T01:53:54.106Z,8.38
2023-05-01T01:54:34.072Z,8.38
2023-05-01T01:55:09.642Z,8.38
2023-05-01T01:55:44.625Z,8.38
2023-05-01T01:56:19.787Z,8.31
2023-05-01T01:56:53.219Z,8.31
2023-05-01T01:57:28.176Z,8.38
2023-05-01T01:58:03.050Z,8.31
2023-05-01T01:58:39.184Z,8.31
2023-05-01T01:59:14.595Z,8.31
2023-05-01T01:59:48.444Z,8.31
2023-05-01T02:01:25.876Z,8.31
2023-05-01T02:02:01.318Z,8.31
2023-05-01T02:02:34.097Z,8.31
2023-05-01T02:03:08.322Z,8.31
2023-05-01T02:03:48.046Z,8.31
2023-05-01T02:04:23.050Z,8.31
2023-05-01T02:04:57.869Z,8.31
2023-05-01T02:05:32.352Z,8.31
2023-05-01T02:06:06.801Z,8.25
2023-05-01T02:06:41.858Z,8.25
2023-05-01T02:07:16.478Z,8.25
2023-05-01T02:07:50.394Z,8.25
2023-05-01T02:08:26.380Z,8.25
2023-05-01T02:09:00.913Z,8.25
2023-05-01T02:09:35.488Z,8.25
2023-05-01T02:10:12.318Z,8.25
2023-05-01T02:10:45.326Z,8.25
2023-05-01T02:11:21.109Z,8.25
2023-05-01T02:11:55.769Z,8.25
2023-05-01T02:12:29.540Z,8.25
2023-05-01T02:13:03.314Z,8.19
2023-05-01T02:13:38.754Z,8.19
2023-05-01T02:14:13.182Z,8.19
2023-05-01T02:14:46.143Z,8.19
2023-05-01T02:15:20.760Z,8.19
2023-05-01T02:15:53.960Z,8.19
2023-05-01T02:16:27.678Z,8.19
2023-05-01T02:17:01.543Z,8.19
2023-05-01T02:17:35.695Z,8.19
2023-05-01T02:18:09.701Z,8.19
2023-05-01T02:18:44.027Z,8.19
2023-05-01T02:19:17.059Z,8.19
2023-05-01T02:19:53.305Z,8.19
2023-05-01T02:20:27.512Z,8.19
2023-05-01T02:21:01.049Z,8.19
2023-05-01T02:21:35.729Z,8.19
2023-05-01T02:22:10.148Z,8.19
2023-05-01T02:22:43.405Z,8.19
2023-05-01T02:23:16.376Z,8.19
2023-05-01T02:23:50.030Z,8.19
2023-05-01T02:24:24.330Z,8.19
2023-05-01T02:24:58.851Z,8.19
2023-05-01T02:25:36.381Z,8.19
2023-05-01T02:26:13.678Z,8.19
2023-05-01T02:26:55.184Z,8.19
2023-05-01T02:27:32.548Z,8.19
2023-05-01T02:28:13.393Z,8.19
2023-05-01T02:28:46.818Z,8.19
2023-05-01T02:29:19.339Z,8.13
2023-05-01T02:29:53.538Z,8.13
2023-05-01T02:30:26.258Z,8.13
2023-05-01T02:30:59.620Z,8.13
2023-05-01T02:31:35.164Z,8.13
2023-05-01T02:32:07.909Z,8.13
2023-05-01T02:32:40.525Z,8.13
2023-05-01T02:33:14.072Z,8.06
2023-05-01T02:33:46.619Z,8.13
2023-05-01T02:34:19.368Z,8.13
2023-05-01T02:34:54.143Z,8.13
2023-05-01T02:35:26.938Z,8.13
2023-05-01T02:35:59.721Z,8.13
2023-05-01T02:36:33.961Z,8.06
2023-05-01T02:37:11.092Z,8.13
2023-05-01T02:37:44.299Z,8.13
2023-05-01T02:38:17.868Z,8.13
2023-05-01T02:38:51.282Z,8.13
2023-05-01T02:39:23.815Z,8.13
2023-05-01T02:39:58.045Z,8.06
2023-05-01T02:40:31.968Z,8.06
2023-05-01T02:41:04.846Z,8.06
2023-05-01T02:41:39.890Z,8.06
2023-05-01T02:42:16.083Z,8.06
2023-05-01T02:42:49.752Z,8.06
2023-05-01T02:43:23.926Z,8.06
2023-05-01T02:44:01.683Z,8.06
2023-05-01T02:44:42.039Z,8.06
2023-05-01T02:45:19.731Z,8.06
2023-05-01T02:45:53.729Z,8.06
2023-05-01T02:46:28.468Z,8.00
2023-05-01T02:47:02.071Z,8.00
2023-05-01T02:47:38.053Z,8.00
2023-05-01T02:48:14.336Z,8.00
2023-05-01T02:48:49.375Z,8.00
2023-05-01T02:49:22.982Z,8.00
2023-05-01T02:49:58.436Z,7.94
2023-05-01T02:50:33.158Z,7.94
2023-05-01T02:51:06.385Z,7.94
2023-05-01T02:51:41.044Z,7.94
2023-05-01T02:52:14.203Z,7.94
2023-05-01T02:52:47.511Z,7.88
2023-05-01T02:53:39.656Z,7.88
2023-05-01T02:54:22.642Z,7.88
2023-05-01T02:54:56.823Z,7.88
2023-05-01T02:55:29.894Z,7.88
2023-05-01T02:56:03.890Z,7.88
2023-05-01T02:56:37.606Z,7.81
2023-05-01T02:57:11.087Z,7.81
2023-05-01T02:57:58.554Z,7.81
2023-05-01T02:58:32.427Z,7.81
2023-05-01T02:59:04.980Z,7.81
2023-05-01T02:59:38.536Z,7.81
2023-05-01T03:00:13.931Z,7.75
2023-05-01T03:00:49.836Z,7.75
2023-05-01T03:01:22.804Z,7.75
2023-05-01T03:01:56.051Z,7.75
2023-05-01T03:02:29.610Z,7.75
2023-05-01T03:03:02.234Z,7.75
2023-05-01T03:03:35.311Z,7.75
2023-05-01T03:04:08.839Z,7.75
2023-05-01T03:04:41.861Z,7.75
2023-05-01T03:05:16.128Z,7.75
2023-05-01T03:05:49.585Z,7.75
2023-05-01T03:06:22.251Z,7.69
2023-05-01T03:06:57.874Z,7.75
2023-05-01T03:07:35.088Z,7.69
2023-05-01T03:08:08.799Z,7.69
2023-05-01T03:08:41.366Z,7.69
2023-05-01T03:09:13.861Z,7.69
2023-05-01T03:09:47.403Z,7.69
2023-05-01T03:10:19.892Z,7.69
2023-05-01T03:10:52.348Z,7.69
2023-05-01T03:11:25.850Z,7.69
2023-05-01T03:11:58.595Z,7.69
2023-05-01T03:12:31.070Z,7.69
2023-05-01T03:13:03.648Z,7.69
2023-05-01T03:13:37.578Z,7.69
2023-05-01T03:14:11.267Z,7.69
2023-05-01T03:14:43.784Z,7.69
2023-05-01T03:15:18.530Z,7.69
2023-05-01T03:15:51.019Z,7.69
2023-05-01T03:16:24.529Z,7.69
2023-05-01T03:16:57.115Z,7.69
2023-05-01T03:17:29.753Z,7.69
2023-05-01T03:18:03.815Z,7.69
2023-05-01T03:18:36.323Z,7.69
2023-05-01T03:19:10.549Z,7.69
2023-05-01T03:19:43.940Z,7.69
2023-05-01T03:20:17.878Z,7.69
2023-05-01T03:20:54.824Z,7.69
2023-05-01T03:21:27.498Z,7.69
2023-05-01T03:22:00.415Z,7.75
2023-05-01T03:22:33.926Z,7.69
2023-05-01T03:23:06.605Z,7.69
2023-05-01T03:23:39.259Z,7.69
2023-05-01T03:24:13.976Z,7.69
2023-05-01T03:24:47.975Z,7.69
2023-05-01T03:25:20.898Z,7.69
2023-05-01T03:25:57.473Z,7.69
2023-05-01T03:26:30.140Z,7.69
2023-05-01T03:27:03.031Z,7.63
2023-05-01T03:27:39.035Z,7.63
2023-05-01T03:28:12.486Z,7.63
2023-05-01T03:28:45.595Z,7.63
2023-05-01T03:29:19.056Z,7.63
2023-05-01T03:29:52.560Z,7.63
2023-05-01T03:30:26.875Z,7.63
2023-05-01T03:31:03.249Z,7.63
2023-05-01T03:31:40.213Z,7.63
2023-05-01T03:32:16.995Z,7.63
2023-05-01T03:32:52.096Z,7.63
2023-05-01T03:33:31.651Z,7.63
2023-05-01T03:34:05.398Z,7.63
2023-05-01T03:34:38.583Z,7.63
2023-05-01T03:35:12.572Z,7.63
2023-05-01T03:35:52.055Z,7.56
2023-05-01T03:36:26.935Z,7.56
2023-05-01T03:37:01.874Z,7.56
2023-05-01T03:37:34.516Z,7.56
2023-05-01T03:38:08.759Z,7.56
2023-05-01T03:39:01.136Z,7.56
2023-05-01T03:39:54.224Z,7.56
2023-05-01T03:40:45.430Z,7.50
2023-05-01T03:41:47.841Z,7.50
2023-05-01T03:42:28.860Z,7.50
2023-05-01T03:43:07.316Z,7.50
2023-05-01T03:43:40.849Z,7.50
2023-05-01T03:44:21.475Z,7.50
2023-05-01T03:44:54.008Z,7.50
2023-05-01T03:45:27.563Z,7.50
2023-05-01T03:46:00.166Z,7.50
2023-05-01T03:46:32.944Z,7.44
2023-05-01T03:47:06.662Z,7.44
2023-05-01T03:47:44.324Z,7.44
2023-05-01T03:48:18.230Z,7.44
2023-05-01T03:48:50.755Z,7.44
2023-05-01T03:49:23.678Z,7.44
2023-05-01T03:49:57.781Z,7.44
2023-05-01T03:50:30.596Z,7.44
2023-05-01T03:51:05.214Z,7.44
2023-05-01T03:51:39.483Z,7.38
2023-05-01T03:52:12.867Z,7.38
2023-05-01T03:52:45.544Z,7.38
2023-05-01T03:53:19.726Z,7.38
2023-05-01T03:53:53.202Z,7.38
2023-05-01T03:54:25.939Z,7.38
2023-05-01T03:55:09.796Z,7.38
2023-05-01T03:55:46.442Z,7.38
2023-05-01T03:56:19.550Z,7.38
2023-05-01T03:56:53.559Z,7.38
2023-05-01T03:57:27.467Z,7.38
2023-05-01T03:57:59.993Z,7.38
2023-05-01T03:58:33.526Z,7.38
2023-05-01T03:59:06.149Z,7.38
2023-05-01T03:59:38.976Z,7.38
2023-05-01T04:00:14.195Z,7.31
2023-05-01T04:00:51.178Z,7.38
2023-05-01T04:01:23.927Z,7.31
2023-05-01T04:01:57.553Z,7.38
2023-05-01T04:02:32.222Z,7.38
2023-05-01T04:03:06.466Z,7.38
2023-05-01T04:03:41.167Z,7.31
2023-05-01T04:04:13.919Z,7.31
2023-05-01T04:04:50.934Z,7.31
2023-05-01T04:05:23.538Z,7.31
2023-05-01T04:05:59.726Z,7.31
2023-05-01T04:06:37.994Z,7.31
2023-05-01T04:07:12.141Z,7.31
2023-05-01T04:07:45.001Z,7.31
2023-05-01T04:08:18.483Z,7.31
2023-05-01T04:08:51.164Z,7.31
2023-05-01T04:09:23.743Z,7.31
2023-05-01T04:09:57.430Z,7.31
2023-05-01T04:10:30.942Z,7.31
2023-05-01T04:11:16.337Z,7.25
2023-05-01T04:11:48.925Z,7.25
2023-05-01T04:12:23.255Z,7.25
2023-05-01T04:12:55.845Z,7.25
2023-05-01T04:13:28.352Z,7.25
2023-05-01T04:14:01.857Z,7.25
2023-05-01T04:14:34.372Z,7.25
2023-05-01T04:15:08.569Z,7.25
2023-05-01T04:15:46.830Z,7.25
2023-05-01T04:16:19.643Z,7.25
2023-05-01T04:16:52.762Z,7.25
2023-05-01T04:17:26.478Z,7.25
2023-05-01T04:17:59.143Z,7.25
2023-05-01T04:18:31.696Z,7.25
2023-05-01T04:19:06.333Z,7.25
2023-05-01T04:19:41.996Z,7.25
2023-05-01T04:20:16.535Z,7.25
2023-05-01T04:20:51.055Z,7.25
2023-05-01T04:21:24.183Z,7.25
2023-05-01T04:21:59.607Z,7.25
2023-05-01T04:22:33.140Z,7.25
2023-05-01T04:23:05.723Z,7.25
2023-05-01T04:23:38.308Z,7.25
2023-05-01T04:24:11.798Z,7.25
2023-05-01T04:24:44.440Z,7.25
2023-05-01T04:25:17.049Z,7.25
2023-05-01T04:25:51.985Z,7.25
2023-05-01T04:26:24.567Z,7.25
2023-05-01T04:26:58.577Z,7.25
2023-05-01T04:27:32.197Z,7.25
2023-05-01T04:28:05.395Z,7.25
2023-05-01T04:28:38.026Z,7.25
2023-05-01T04:29:13.709Z,7.25
2023-05-01T04:29:46.753Z,7.25
2023-05-01T04:30:19.399Z,7.25
2023-05-01T04:30:52.941Z,7.25
2023-05-01T04:31:25.598Z,7.25
2023-05-01T04:31:59.301Z,7.25
2023-05-01T04:32:34.468Z,7.25
2023-05-01T04:33:11.456Z,7.25
2023-05-01T04:33:47.700Z,7.25
2023-05-01T04:34:23.361Z,7.25
2023-05-01T04:34:56.279Z,7.25
2023-05-01T04:35:30.066Z,7.31
2023-05-01T04:36:02.794Z,7.31
2023-05-01T04:36:36.481Z,7.25
2023-05-01T04:37:10.492Z,7.31
2023-05-01T04:37:44.557Z,7.31
2023-05-01T04:38:17.026Z,7.31
2023-05-01T04:38:49.665Z,7.31
2023-05-01T04:39:23.929Z,7.31
2023-05-01T04:39:56.795Z,7.31
2023-05-01T04:40:30.139Z,7.31
2023-05-01T04:41:05.830Z,7.31
2023-05-01T04:41:38.338Z,7.31
2023-05-01T04:42:11.508Z,7.31
2023-05-01T04:42:44.991Z,7.31
2023-05-01T04:43:19.846Z,7.31
2023-05-01T04:43:55.228Z,7.31
2023-05-01T04:44:28.766Z,7.31
2023-05-01T04:45:04.032Z,7.31
2023-05-01T04:45:40.270Z,7.31
2023-05-01T04:46:14.340Z,7.31
2023-05-01T04:46:46.947Z,7.38
2023-05-01T04:47:19.729Z,7.38
2023-05-01T04:47:53.235Z,7.38
2023-05-01T04:48:26.338Z,7.38
2023-05-01T04:48:59.773Z,7.38
2023-05-01T04:49:32.773Z,7.38
2023-05-01T04:50:06.262Z,7.38
2023-05-01T04:50:39.819Z,7.38
2023-05-01T04:51:12.872Z,7.38
2023-05-01T04:51:45.846Z,7.38
2023-05-01T04:52:23.038Z,7.38
2023-05-01T04:53:00.556Z,7.38
2023-05-01T04:53:33.101Z,7.44
2023-05-01T04:54:07.459Z,7.44
2023-05-01T04:54:42.279Z,7.44
2023-05-01T04:55:15.176Z,7.44
2023-05-01T04:56:05.736Z,7.44
2023-05-01T04:56:38.823Z,7.44
2023-05-01T04:57:11.304Z,7.50
2023-05-01T04:57:44.890Z,7.50
2023-05-01T04:58:17.451Z,7.50
2023-05-01T04:58:52.944Z,7.50
2023-05-01T04:59:32.598Z,7.50
2023-05-01T05:00:07.687Z,7.56
2023-05-01T05:00:45.057Z,7.56
2023-05-01T05:01:25.873Z,7.56
2023-05-01T05:01:58.594Z,7.56
2023-05-01T05:02:32.244Z,7.63
2023-05-01T05:03:05.193Z,7.63
2023-05-01T05:03:37.895Z,7.63
2023-05-01T05:04:10.632Z,7.69
2023-05-01T05:04:44.173Z,7.69
2023-05-01T05:05:16.828Z,7.75
2023-05-01T05:05:49.314Z,7.75
2023-05-01T05:06:23.173Z,7.75
2023-05-01T05:06:56.156Z,7.75
2023-05-01T05:07:38.600Z,7.75
2023-05-01T05:08:31.464Z,7.81
2023-05-01T05:09:14.314Z,7.81
2023-05-01T05:09:46.909Z,7.81
2023-05-01T05:10:20.589Z,7.88
2023-05-01T05:11:04.581Z,7.88
2023-05-01T05:11:46.234Z,7.88
2023-05-01T05:12:27.162Z,7.88
2023-05-01T05:12:59.692Z,7.94
2023-05-01T05:13:32.439Z,7.94
2023-05-01T05:14:12.835Z,8.00
2023-05-01T05:14:45.463Z,8.00
2023-05-01T05:15:18.869Z,8.06
2023-05-01T05:15:52.566Z,8.13
2023-05-01T05:16:27.882Z,8.13
2023-05-01T05:17:00.558Z,8.19
2023-05-01T05:17:34.397Z,8.19
2023-05-01T05:18:07.357Z,8.25
2023-05-01T05:18:40.053Z,8.25
2023-05-01T05:19:13.701Z,8.31
2023-05-01T05:19:48.307Z,8.31
2023-05-01T05:20:20.836Z,8.38
2023-05-01T05:20:54.308Z,8.38
2023-05-01T05:21:26.901Z,8.38
2023-05-01T05:22:03.901Z,8.38
2023-05-01T05:22:42.021Z,8.44
2023-05-01T05:23:28.348Z,8.44
2023-05-01T05:24:01.842Z,8.44
2023-05-01T05:24:34.607Z,8.44
2023-05-01T05:25:07.669Z,8.50
2023-05-01T05:25:40.222Z,8.50
2023-05-01T05:26:13.710Z,8.56
2023-05-01T05:26:46.490Z,8.56
2023-05-01T05:27:19.015Z,8.56
2023-05-01T05:27:52.524Z,8.56
2023-05-01T05:28:25.031Z,8.63
2023-05-01T05:28:57.545Z,8.63
2023-05-01T05:29:31.038Z,8.63
2023-05-01T05:30:04.474Z,8.69
2023-05-01T05:30:37.157Z,8.69
2023-05-01T05:31:12.213Z,8.69
2023-05-01T05:31:44.974Z,8.75
2023-05-01T05:32:17.840Z,8.75
2023-05-01T05:32:51.854Z,8.75
2023-05-01T05:33:26.202Z,8.75
2023-05-01T05:33:58.906Z,8.81
2023-05-01T05:34:33.023Z,8.81
2023-05-01T05:35:07.433Z,8.88
2023-05-01T05:35:39.956Z,8.88
2023-05-01T05:36:13.630Z,8.88
2023-05-01T05:36:48.467Z,8.94
2023-05-01T05:37:24.272Z,8.94
2023-05-01T05:37:59.304Z,9.00
2023-05-01T05:38:33.858Z,9.00
2023-05-01T05:39:07.313Z,9.06
2023-05-01T05:39:39.808Z,9.06
2023-05-01T05:40:14.071Z,9.13
2023-05-01T05:40:59.306Z,9.13
2023-05-01T05:41:32.869Z,9.19
2023-05-01T05:42:07.609Z,9.19
2023-05-01T05:42:40.450Z,9.19
2023-05-01T05:43:14.501Z,9.25
2023-05-01T05:43:47.003Z,9.25
2023-05-01T05:44:19.561Z,9.31
2023-05-01T05:44:53.126Z,9.31
2023-05-01T05:45:25.725Z,9.38
2023-05-01T05:45:58.835Z,9.44
2023-05-01T05:46:33.133Z,9.44
2023-05-01T05:47:06.138Z,9.50
2023-05-01T05:47:39.342Z,9.56
2023-05-01T05:48:12.968Z,9.56
2023-05-01T05:48:47.470Z,9.63
2023-05-01T05:49:21.128Z,9.63
2023-05-01T05:49:55.689Z,9.69
2023-05-01T05:50:28.445Z,9.75
2023-05-01T05:51:01.559Z,9.75
2023-05-01T05:51:35.298Z,9.81
2023-05-01T05:52:08.253Z,9.81
2023-05-01T05:52:42.607Z,9.88
2023-05-01T05:53:17.457Z,9.94
2023-05-01T05:53:49.951Z,10.00
2023-05-01T05:54:22.643Z,10.00
2023-05-01T05:54:56.196Z,10.06
2023-05-01T05:55:28.701Z,10.06
2023-05-01T05:56:09.283Z,10.13
2023-05-01T05:56:42.881Z,10.19
2023-05-01T05:57:15.868Z,10.19
2023-05-01T05:57:54.055Z,10.25
2023-05-01T05:58:28.256Z,10.31
2023-05-01T05:59:03.485Z,10.38
2023-05-01T05:59:37.505Z,10.44
2023-05-01T06:00:11.079Z,10.44
2023-05-01T06:00:55.715Z,10.50
2023-05-01T06:01:28.367Z,10.56
2023-05-01T06:02:00.953Z,10.63
2023-05-01T06:02:34.727Z,10.69
2023-05-01T06:03:07.421Z,10.69
2023-05-01T06:03:41.596Z,10.75
2023-05-01T06:04:15.620Z,10.75
2023-05-01T06:04:49.184Z,10.75
2023-05-01T06:05:25.399Z,10.81
2023-05-01T06:05:57.975Z,10.81
2023-05-01T06:06:32.172Z,10.81
2023-05-01T06:07:06.529Z,10.81
2023-05-01T06:07:39.780Z,10.81
2023-05-01T06:08:14.041Z,10.88
2023-05-01T06:08:47.946Z,10.88
2023-05-01T06:09:21.814Z,10.94
2023-05-01T06:09:54.545Z,10.94
2023-05-01T06:10:27.273Z,11.00
2023-05-01T06:11:00.730Z,11.00
2023-05-01T06:11:33.251Z,11.00
2023-05-01T06:12:06.437Z,11.00
2023-05-01T06:12:42.814Z,11.00
2023-05-01T06:13:19.068Z,11.00
2023-05-01T06:13:55.302Z,11.00
2023-05-01T06:14:27.787Z,11.06
2023-05-01T06:15:00.609Z,11.06
2023-05-01T06:15:35.649Z,11.13
2023-05-01T06:16:08.701Z,11.13
2023-05-01T06:16:42.686Z,11.13
2023-05-01T06:17:15.228Z,11.19
2023-05-01T06:17:47.797Z,11.19
2023-05-01T06:18:21.357Z,11.19
2023-05-01T06:18:53.904Z,11.19
2023-05-01T06:19:26.500Z,11.19
2023-05-01T06:20:08.053Z,11.19
2023-05-01T06:20:40.700Z,11.19
2023-05-01T06:21:14.608Z,11.25
2023-05-01T06:21:47.146Z,11.25
2023-05-01T06:22:20.371Z,11.31
2023-05-01T06:23:08.524Z,11.31
2023-05-01T06:23:55.493Z,11.31
2023-05-01T06:24:50.334Z,11.38
2023-05-01T06:25:23.957Z,11.44
2023-05-01T06:25:56.505Z,11.44
2023-05-01T06:26:30.011Z,11.50
2023-05-01T06:27:02.700Z,11.50
2023-05-01T06:27:35.574Z,11.50
2023-05-01T06:28:09.656Z,11.50
2023-05-01T06:28:42.530Z,11.50
2023-05-01T06:29:16.476Z,11.56
2023-05-01T06:29:51.158Z,11.56
2023-05-01T06:30:24.033Z,11.56
2023-05-01T06:30:56.563Z,11.56
2023-05-01T06:31:32.182Z,11.56
2023-05-01T06:32:05.234Z,11.56
2023-05-01T06:32:38.186Z,11.56
2023-05-01T06:33:11.723Z,11.56
2023-05-01T06:33:46.296Z,11.63
2023-05-01T06:34:27.301Z,11.63
2023-05-01T06:35:01.240Z,11.63
2023-05-01T06:35:33.768Z,11.63
2023-05-01T06:36:06.785Z,11.63
2023-05-01T06:36:40.402Z,11.63
2023-05-01T06:37:12.986Z,11.63
2023-05-01T06:37:45.795Z,11.63
2023-05-01T06:38:19.467Z,11.69
2023-05-01T06:38:52.012Z,11.69
2023-05-01T06:39:26.375Z,11.63
2023-05-01T06:40:00.094Z,11.63
2023-05-01T06:40:34.761Z,11.63
2023-05-01T06:41:08.240Z,11.63
2023-05-01T06:41:40.755Z,11.63
2023-05-01T06:42:16.097Z,11.63
2023-05-01T06:42:49.740Z,11.63
2023-05-01T06:43:22.320Z,11.63
2023-05-01T06:43:54.853Z,11.63
2023-05-01T06:44:28.843Z,11.63
2023-05-01T06:45:03.833Z,11.63
2023-05-01T06:45:39.675Z,11.63
2023-05-01T06:46:13.323Z,11.63
2023-05-01T06:46:46.736Z,11.63
2023-05-01T06:47:19.375Z,11.63
2023-05-01T06:47:52.895Z,11.63
2023-05-01T06:48:25.406Z,11.56
2023-05-01T06:48:57.909Z,11.56
2023-05-01T06:49:31.372Z,11.56
2023-05-01T06:50:05.813Z,11.50
2023-05-01T06:50:39.101Z,11.50
2023-05-01T06:51:14.844Z,11.50
2023-05-01T06:51:47.399Z,11.50
2023-05-01T06:52:19.910Z,11.44
2023-05-01T06:52:53.375Z,11.44
2023-05-01T06:53:25.866Z,11.44
2023-05-01T06:53:58.431Z,11.38
2023-05-01T06:54:36.048Z,11.38
2023-05-01T06:55:09.524Z,11.38
2023-05-01T06:55:42.065Z,11.38
2023-05-01T06:56:15.523Z,11.38
2023-05-01T06:56:48.038Z,11.38
2023-05-01T06:57:20.609Z,11.38
2023-05-01T06:57:54.121Z,11.38
2023-05-01T06:58:26.869Z,11.38
2023-05-01T06:58:59.316Z,11.38
2023-05-01T06:59:32.819Z,11.38
2023-05-01T07:00:06.325Z,11.38
2023-05-01T07:00:38.864Z,11.31
2023-05-01T07:01:12.775Z,11.38
2023-05-01T07:01:45.377Z,11.31
2023-05-01T07:02:18.005Z,11.31
2023-05-01T07:02:55.261Z,11.31
2023-05-01T07:03:27.938Z,11.31
2023-05-01T07:04:00.517Z,11.25
2023-05-01T07:04:34.570Z,11.25
2023-05-01T07:05:07.418Z,11.25
2023-05-01T07:05:40.342Z,11.25
2023-05-01T07:06:14.031Z,11.25
2023-05-01T07:06:46.678Z,11.25
2023-05-01T07:07:19.396Z,11.25
2023-05-01T07:08:00.761Z,11.25
2023-05-01T07:08:34.335Z,11.25
2023-05-01T07:09:07.769Z,11.25
2023-05-01T07:09:41.837Z,11.25
2023-05-01T07:10:14.434Z,11.25
2023-05-01T07:10:49.658Z,11.25
2023-05-01T07:11:22.270Z,11.25
2023-05-01T07:11:56.975Z,11.25
2023-05-01T07:12:30.635Z,11.25
2023-05-01T07:13:03.475Z,11.25
2023-05-01T07:13:35.940Z,11.25
2023-05-01T07:14:09.424Z,11.19
2023-05-01T07:14:41.957Z,11.19
2023-05-01T07:15:16.180Z,11.19
2023-05-01T07:15:51.688Z,11.19
2023-05-01T07:16:26.526Z,11.19
2023-05-01T07:16:59.115Z,11.25
2023-05-01T07:17:32.664Z,11.25
2023-05-01T07:18:06.076Z,11.25
2023-05-01T07:18:38.884Z,11.19
2023-05-01T07:19:13.568Z,11.19
2023-05-01T07:19:46.127Z,11.19
2023-05-01T07:20:18.945Z,11.19
2023-05-01T07:20:52.847Z,11.19
2023-05-01T07:21:25.547Z,11.19
2023-05-01T07:21:58.153Z,11.19
2023-05-01T07:22:31.654Z,11.19
2023-05-01T07:23:07.172Z,11.19
2023-05-01T07:23:41.181Z,11.19
2023-05-01T07:24:13.668Z,11.19
2023-05-01T07:24:47.458Z,11.19
2023-05-01T07:25:21.293Z,11.19
2023-05-01T07:25:54.405Z,11.19
2023-05-01T07:26:27.255Z,11.19
2023-05-01T07:27:01.061Z,11.19
2023-05-01T07:27:33.591Z,11.19
2023-05-01T07:28:08.032Z,11.19
2023-05-01T07:28:41.878Z,11.19
2023-05-01T07:29:16.374Z,11.19
2023-05-01T07:29:50.716Z,11.19
2023-05-01T07:30:24.312Z,11.19
2023-05-01T07:30:56.875Z,11.19
2023-05-01T07:31:30.400Z,11.19
2023-05-01T07:32:02.959Z,11.19
2023-05-01T07:32:35.497Z,11.19
2023-05-01T07:33:09.001Z,11.19
2023-05-01T07:33:42.392Z,11.19
2023-05-01T07:34:19.518Z,11.19
2023-05-01T07:34:53.028Z,11.19
2023-05-01T07:35:25.787Z,11.19
2023-05-01T07:35:58.276Z,11.19
2023-05-01T07:36:31.772Z,11.19
2023-05-01T07:37:04.964Z,11.19
2023-05-01T07:37:37.546Z,11.19
2023-05-01T07:38:10.988Z,11.19
2023-05-01T07:38:43.461Z,11.19
2023-05-01T07:39:17.591Z,11.19
2023-05-01T07:39:52.433Z,11.19
2023-05-01T07:40:25.015Z,11.19
2023-05-01T07:40:57.472Z,11.19
2023-05-01T07:41:31.655Z,11.19
2023-05-01T07:42:04.563Z,11.19
2023-05-01T07:42:38.013Z,11.19
2023-05-01T07:43:11.317Z,11.19